sensor_id;sensor_type;location;lat;lon;timestamp;temperature;humidity
66670;DHT22;53568;52.164;4.472;2023-02-01T00:02:15;9.03;67.66
66670;DHT22;53568;52.164;4.472;2023-02-01T00:04:41;9.02;67.91
66670;DHT22;53568;52.164;4.472;2023-02-01T00:07:06;8.99;67.68
66670;DHT22;53568;52.164;4.472;2023-02-01T00:09:32;8.95;67.40
66670;DHT22;53568;52.164;4.472;2023-02-01T00:11:57;8.99;67.44
66670;DHT22;53568;52.164;4.472;2023-02-01T00:14:27;8.87;67.34
66670;DHT22;53568;52.164;4.472;2023-02-01T00:16:53;8.87;67.02
66670;DHT22;53568;52.164;4.472;2023-02-01T00:19:18;8.82;66.97
66670;DHT22;53568;52.164;4.472;2023-02-01T00:21:44;8.83;66.80
66670;DHT22;53568;52.164;4.472;2023-02-01T00:24:11;8.90;66.55
66670;DHT22;53568;52.164;4.472;2023-02-01T00:26:39;8.86;66.34
66670;DHT22;53568;52.164;4.472;2023-02-01T00:29:09;8.87;66.67
66670;DHT22;53568;52.164;4.472;2023-02-01T00:31:35;8.89;67.00
66670;DHT22;53568;52.164;4.472;2023-02-01T00:34:01;8.90;66.80
66670;DHT22;53568;52.164;4.472;2023-02-01T00:36:27;8.90;66.64
66670;DHT22;53568;52.164;4.472;2023-02-01T00:38:53;8.93;66.13
66670;DHT22;53568;52.164;4.472;2023-02-01T00:41:20;8.86;65.98
66670;DHT22;53568;52.164;4.472;2023-02-01T00:43:47;8.86;65.98
66670;DHT22;53568;52.164;4.472;2023-02-01T00:46:14;8.96;66.06
66670;DHT22;53568;52.164;4.472;2023-02-01T00:48:40;8.97;66.23
66670;DHT22;53568;52.164;4.472;2023-02-01T00:51:13;8.83;66.76
66670;DHT22;53568;52.164;4.472;2023-02-01T00:53:39;8.92;66.84
66670;DHT22;53568;52.164;4.472;2023-02-01T00:56:05;8.93;66.90
66670;DHT22;53568;52.164;4.472;2023-02-01T00:58:31;8.93;67.12
66670;DHT22;53568;52.164;4.472;2023-02-01T01:03:43;8.92;67.04
66670;DHT22;53568;52.164;4.472;2023-02-01T01:06:12;9.00;67.22
66670;DHT22;53568;52.164;4.472;2023-02-01T01:08:39;9.05;67.36
66670;DHT22;53568;52.164;4.472;2023-02-01T01:11:14;9.05;67.72
66670;DHT22;53568;52.164;4.472;2023-02-01T01:13:41;8.96;68.16
66670;DHT22;53568;52.164;4.472;2023-02-01T01:16:09;8.90;68.75
66670;DHT22;53568;52.164;4.472;2023-02-01T01:18:35;8.89;69.08
66670;DHT22;53568;52.164;4.472;2023-02-01T01:21:04;8.95;68.94
66670;DHT22;53568;52.164;4.472;2023-02-01T01:23:30;8.99;68.89
66670;DHT22;53568;52.164;4.472;2023-02-01T01:25:55;8.96;68.96
66670;DHT22;53568;52.164;4.472;2023-02-01T01:28:21;9.03;68.81
66670;DHT22;53568;52.164;4.472;2023-02-01T01:30:47;8.96;68.99
66670;DHT22;53568;52.164;4.472;2023-02-01T01:33:12;8.93;69.33
66670;DHT22;53568;52.164;4.472;2023-02-01T01:35:38;8.90;69.46
66670;DHT22;53568;52.164;4.472;2023-02-01T01:38:03;8.86;69.50
66670;DHT22;53568;52.164;4.472;2023-02-01T01:40:30;8.96;69.33
66670;DHT22;53568;52.164;4.472;2023-02-01T01:42:57;8.87;69.46
66670;DHT22;53568;52.164;4.472;2023-02-01T01:45:31;8.85;69.24
66670;DHT22;53568;52.164;4.472;2023-02-01T01:48:04;8.65;69.50
66670;DHT22;53568;52.164;4.472;2023-02-01T01:50:41;8.71;69.47
66670;DHT22;53568;52.164;4.472;2023-02-01T01:53:12;8.73;69.16
66670;DHT22;53568;52.164;4.472;2023-02-01T01:55:43;8.85;69.11
66670;DHT22;53568;52.164;4.472;2023-02-01T01:58:17;8.90;69.01
66670;DHT22;53568;52.164;4.472;2023-02-01T02:00:45;8.86;69.14
66670;DHT22;53568;52.164;4.472;2023-02-01T02:05:58;8.89;68.92
66670;DHT22;53568;52.164;4.472;2023-02-01T02:08:26;8.86;68.55
66670;DHT22;53568;52.164;4.472;2023-02-01T02:10:52;8.90;68.51
66670;DHT22;53568;52.164;4.472;2023-02-01T02:13:33;8.86;68.42
66670;DHT22;53568;52.164;4.472;2023-02-01T02:30:02;8.90;69.67
66670;DHT22;53568;52.164;4.472;2023-02-01T02:35:26;8.80;69.76
66670;DHT22;53568;52.164;4.472;2023-02-01T02:43:37;8.77;69.60
66670;DHT22;53568;52.164;4.472;2023-02-01T02:46:33;8.89;69.42
66670;DHT22;53568;52.164;4.472;2023-02-01T02:49:44;8.76;69.60
66670;DHT22;53568;52.164;4.472;2023-02-01T02:52:41;8.85;69.50
66670;DHT22;53568;52.164;4.472;2023-02-01T02:55:30;8.80;69.48
66670;DHT22;53568;52.164;4.472;2023-02-01T02:57:58;8.72;69.62
66670;DHT22;53568;52.164;4.472;2023-02-01T03:00:44;8.72;69.69
66670;DHT22;53568;52.164;4.472;2023-02-01T03:03:28;8.68;69.96
66670;DHT22;53568;52.164;4.472;2023-02-01T03:06:15;8.68;69.63
66670;DHT22;53568;52.164;4.472;2023-02-01T03:08:43;8.73;69.28
66670;DHT22;53568;52.164;4.472;2023-02-01T03:11:14;8.73;69.29
66670;DHT22;53568;52.164;4.472;2023-02-01T03:14:12;8.83;69.15
66670;DHT22;53568;52.164;4.472;2023-02-01T03:16:50;8.72;69.21
66670;DHT22;53568;52.164;4.472;2023-02-01T03:19:35;8.72;68.94
66670;DHT22;53568;52.164;4.472;2023-02-01T03:22:13;8.71;69.24
66670;DHT22;53568;52.164;4.472;2023-02-01T03:25:12;8.75;69.18
66670;DHT22;53568;52.164;4.472;2023-02-01T03:28:07;8.65;69.69
66670;DHT22;53568;52.164;4.472;2023-02-01T03:30:41;8.63;69.86
66670;DHT22;53568;52.164;4.472;2023-02-01T03:33:13;8.69;69.77
66670;DHT22;53568;52.164;4.472;2023-02-01T03:38:51;8.65;69.81
66670;DHT22;53568;52.164;4.472;2023-02-01T03:44:23;8.66;70.30
66670;DHT22;53568;52.164;4.472;2023-02-01T03:47:14;8.71;70.37
66670;DHT22;53568;52.164;4.472;2023-02-01T03:49:55;8.52;69.82
66670;DHT22;53568;52.164;4.472;2023-02-01T03:52:38;8.51;69.22
66670;DHT22;53568;52.164;4.472;2023-02-01T03:55:07;8.49;69.02
66670;DHT22;53568;52.164;4.472;2023-02-01T03:57:46;8.56;69.01
66670;DHT22;53568;52.164;4.472;2023-02-01T04:02:43;8.49;69.54
66670;DHT22;53568;52.164;4.472;2023-02-01T04:05:08;8.48;69.85
66670;DHT22;53568;52.164;4.472;2023-02-01T04:07:34;8.53;69.90
66670;DHT22;53568;52.164;4.472;2023-02-01T04:10:00;8.62;69.97
66670;DHT22;53568;52.164;4.472;2023-02-01T04:12:25;8.65;69.98
66670;DHT22;53568;52.164;4.472;2023-02-01T04:14:51;8.63;69.56
66670;DHT22;53568;52.164;4.472;2023-02-01T04:17:20;8.63;69.21
66670;DHT22;53568;52.164;4.472;2023-02-01T04:19:45;8.58;69.40
66670;DHT22;53568;52.164;4.472;2023-02-01T04:22:11;8.59;69.38
66670;DHT22;53568;52.164;4.472;2023-02-01T04:24:38;8.59;69.25
66670;DHT22;53568;52.164;4.472;2023-02-01T04:27:03;8.51;69.57
66670;DHT22;53568;52.164;4.472;2023-02-01T04:29:29;8.55;69.37
66670;DHT22;53568;52.164;4.472;2023-02-01T04:31:54;8.38;69.70
66670;DHT22;53568;52.164;4.472;2023-02-01T04:34:20;8.37;69.68
66670;DHT22;53568;52.164;4.472;2023-02-01T04:36:48;8.38;69.71
66670;DHT22;53568;52.164;4.472;2023-02-01T04:39:14;8.39;69.58
66670;DHT22;53568;52.164;4.472;2023-02-01T04:41:39;8.48;69.40
66670;DHT22;53568;52.164;4.472;2023-02-01T04:44:05;8.51;69.32
66670;DHT22;53568;52.164;4.472;2023-02-01T04:46:31;8.42;69.89
66670;DHT22;53568;52.164;4.472;2023-02-01T04:48:56;8.41;69.95
66670;DHT22;53568;52.164;4.472;2023-02-01T04:51:22;8.45;69.97
66670;DHT22;53568;52.164;4.472;2023-02-01T04:53:47;8.44;70.19
66670;DHT22;53568;52.164;4.472;2023-02-01T04:56:13;8.49;70.06
66670;DHT22;53568;52.164;4.472;2023-02-01T04:58:39;8.51;70.19
66670;DHT22;53568;52.164;4.472;2023-02-01T05:01:06;8.46;70.57
66670;DHT22;53568;52.164;4.472;2023-02-01T05:03:35;8.44;70.99
66670;DHT22;53568;52.164;4.472;2023-02-01T05:06:00;8.53;71.05
66670;DHT22;53568;52.164;4.472;2023-02-01T05:08:27;8.42;71.35
66670;DHT22;53568;52.164;4.472;2023-02-01T05:10:53;8.38;71.21
66670;DHT22;53568;52.164;4.472;2023-02-01T05:13:19;8.37;70.99
66670;DHT22;53568;52.164;4.472;2023-02-01T05:16:03;8.39;70.72
66670;DHT22;53568;52.164;4.472;2023-02-01T05:18:29;8.38;70.83
66670;DHT22;53568;52.164;4.472;2023-02-01T05:20:55;8.39;70.94
66670;DHT22;53568;52.164;4.472;2023-02-01T05:23:20;8.44;71.21
66670;DHT22;53568;52.164;4.472;2023-02-01T05:25:46;8.44;71.50
66670;DHT22;53568;52.164;4.472;2023-02-01T05:28:11;8.41;71.85
66670;DHT22;53568;52.164;4.472;2023-02-01T05:30:37;8.32;71.78
66670;DHT22;53568;52.164;4.472;2023-02-01T05:33:03;8.34;71.70
66670;DHT22;53568;52.164;4.472;2023-02-01T05:35:29;8.39;71.40
66670;DHT22;53568;52.164;4.472;2023-02-01T05:37:55;8.38;71.19
66670;DHT22;53568;52.164;4.472;2023-02-01T05:40:20;8.28;70.80
66670;DHT22;53568;52.164;4.472;2023-02-01T05:42:46;8.32;70.52
66670;DHT22;53568;52.164;4.472;2023-02-01T05:45:12;8.32;70.58
66670;DHT22;53568;52.164;4.472;2023-02-01T05:47:37;8.38;70.79
66670;DHT22;53568;52.164;4.472;2023-02-01T05:50:04;8.28;71.51
66670;DHT22;53568;52.164;4.472;2023-02-01T05:52:30;8.25;72.07
66670;DHT22;53568;52.164;4.472;2023-02-01T05:54:55;8.31;71.94
66670;DHT22;53568;52.164;4.472;2023-02-01T05:57:21;8.34;72.13
66670;DHT22;53568;52.164;4.472;2023-02-01T05:59:47;8.28;72.18
66670;DHT22;53568;52.164;4.472;2023-02-01T06:02:15;8.39;71.88
66670;DHT22;53568;52.164;4.472;2023-02-01T06:04:40;8.46;71.64
66670;DHT22;53568;52.164;4.472;2023-02-01T06:07:07;8.45;71.83
66670;DHT22;53568;52.164;4.472;2023-02-01T06:09:35;8.39;71.80
66670;DHT22;53568;52.164;4.472;2023-02-01T06:12:00;8.41;71.59
66670;DHT22;53568;52.164;4.472;2023-02-01T06:14:27;8.42;71.55
66670;DHT22;53568;52.164;4.472;2023-02-01T06:16:53;8.38;72.02
66670;DHT22;53568;52.164;4.472;2023-02-01T06:19:19;8.39;72.36
66670;DHT22;53568;52.164;4.472;2023-02-01T06:21:45;8.42;72.29
66670;DHT22;53568;52.164;4.472;2023-02-01T06:24:11;8.45;71.96
66670;DHT22;53568;52.164;4.472;2023-02-01T06:26:36;8.44;71.67
66670;DHT22;53568;52.164;4.472;2023-02-01T06:29:02;8.44;71.51
66670;DHT22;53568;52.164;4.472;2023-02-01T06:31:28;8.46;71.13
66670;DHT22;53568;52.164;4.472;2023-02-01T06:33:54;8.44;71.22
66670;DHT22;53568;52.164;4.472;2023-02-01T06:36:19;8.46;70.85
66670;DHT22;53568;52.164;4.472;2023-02-01T06:38:47;8.48;71.02
66670;DHT22;53568;52.164;4.472;2023-02-01T06:41:13;8.41;71.22
66670;DHT22;53568;52.164;4.472;2023-02-01T06:43:39;8.49;71.06
66670;DHT22;53568;52.164;4.472;2023-02-01T06:46:07;8.56;70.93
66670;DHT22;53568;52.164;4.472;2023-02-01T06:48:34;8.52;71.19
66670;DHT22;53568;52.164;4.472;2023-02-01T06:50:59;8.55;71.31
66670;DHT22;53568;52.164;4.472;2023-02-01T06:53:25;8.56;71.35
66670;DHT22;53568;52.164;4.472;2023-02-01T06:55:55;8.58;71.30
66670;DHT22;53568;52.164;4.472;2023-02-01T06:58:22;8.48;71.45
66670;DHT22;53568;52.164;4.472;2023-02-01T07:00:48;8.53;71.44
66670;DHT22;53568;52.164;4.472;2023-02-01T07:03:14;8.51;71.42
66670;DHT22;53568;52.164;4.472;2023-02-01T07:05:39;8.49;71.42
66670;DHT22;53568;52.164;4.472;2023-02-01T07:08:05;8.42;71.55
66670;DHT22;53568;52.164;4.472;2023-02-01T07:10:30;8.46;71.61
66670;DHT22;53568;52.164;4.472;2023-02-01T07:12:57;8.45;71.87
66670;DHT22;53568;52.164;4.472;2023-02-01T07:15:26;8.46;71.72
66670;DHT22;53568;52.164;4.472;2023-02-01T07:17:54;8.52;71.47
66670;DHT22;53568;52.164;4.472;2023-02-01T07:20:19;8.45;71.42
66670;DHT22;53568;52.164;4.472;2023-02-01T07:22:45;8.45;71.60
66670;DHT22;53568;52.164;4.472;2023-02-01T07:25:10;8.41;71.61
66670;DHT22;53568;52.164;4.472;2023-02-01T07:27:36;8.52;71.51
66670;DHT22;53568;52.164;4.472;2023-02-01T07:30:03;8.45;71.79
66670;DHT22;53568;52.164;4.472;2023-02-01T07:32:29;8.42;72.07
66670;DHT22;53568;52.164;4.472;2023-02-01T07:34:55;8.46;72.18
66670;DHT22;53568;52.164;4.472;2023-02-01T07:37:21;8.49;72.01
66670;DHT22;53568;52.164;4.472;2023-02-01T07:39:46;8.45;71.96
66670;DHT22;53568;52.164;4.472;2023-02-01T07:42:12;8.41;72.00
66670;DHT22;53568;52.164;4.472;2023-02-01T07:45:05;8.46;71.88
66670;DHT22;53568;52.164;4.472;2023-02-01T07:47:31;8.45;71.85
66670;DHT22;53568;52.164;4.472;2023-02-01T07:49:56;8.45;71.59
66670;DHT22;53568;52.164;4.472;2023-02-01T07:52:22;8.56;71.42
66670;DHT22;53568;52.164;4.472;2023-02-01T07:54:47;8.53;71.35
66670;DHT22;53568;52.164;4.472;2023-02-01T07:57:13;8.46;71.42
66670;DHT22;53568;52.164;4.472;2023-02-01T07:59:39;8.41;71.89
66670;DHT22;53568;52.164;4.472;2023-02-01T08:02:24;8.45;71.87
66670;DHT22;53568;52.164;4.472;2023-02-01T08:04:50;8.52;71.71
66670;DHT22;53568;52.164;4.472;2023-02-01T08:07:15;8.55;71.75
66670;DHT22;53568;52.164;4.472;2023-02-01T08:09:41;8.51;72.03
66670;DHT22;53568;52.164;4.472;2023-02-01T08:12:06;8.51;72.01
66670;DHT22;53568;52.164;4.472;2023-02-01T08:14:32;8.53;71.17
66670;DHT22;53568;52.164;4.472;2023-02-01T08:16:57;8.55;70.70
66670;DHT22;53568;52.164;4.472;2023-02-01T08:19:23;8.59;70.86
66670;DHT22;53568;52.164;4.472;2023-02-01T08:21:49;8.59;71.51
66670;DHT22;53568;52.164;4.472;2023-02-01T08:24:15;8.55;71.29
66670;DHT22;53568;52.164;4.472;2023-02-01T08:26:40;8.62;71.04
66670;DHT22;53568;52.164;4.472;2023-02-01T08:29:08;8.68;70.86
66670;DHT22;53568;52.164;4.472;2023-02-01T08:31:38;8.72;70.91
66670;DHT22;53568;52.164;4.472;2023-02-01T08:34:08;8.77;70.84
66670;DHT22;53568;52.164;4.472;2023-02-01T08:36:34;8.77;70.98
66670;DHT22;53568;52.164;4.472;2023-02-01T08:39:01;8.73;71.21
66670;DHT22;53568;52.164;4.472;2023-02-01T08:41:29;8.73;71.06
66670;DHT22;53568;52.164;4.472;2023-02-01T08:43:56;8.65;71.31
66670;DHT22;53568;52.164;4.472;2023-02-01T08:46:23;8.62;71.61
66670;DHT22;53568;52.164;4.472;2023-02-01T08:48:49;8.62;71.64
66670;DHT22;53568;52.164;4.472;2023-02-01T08:51:18;8.62;71.68
66670;DHT22;53568;52.164;4.472;2023-02-01T08:53:44;8.68;71.23
66670;DHT22;53568;52.164;4.472;2023-02-01T08:56:12;8.73;70.92
66670;DHT22;53568;52.164;4.472;2023-02-01T08:58:38;8.77;70.54
66670;DHT22;53568;52.164;4.472;2023-02-01T09:01:09;8.85;69.96
66670;DHT22;53568;52.164;4.472;2023-02-01T09:03:36;8.87;69.98
66670;DHT22;53568;52.164;4.472;2023-02-01T09:06:07;8.90;69.98
66670;DHT22;53568;52.164;4.472;2023-02-01T09:08:34;8.90;69.89
66670;DHT22;53568;52.164;4.472;2023-02-01T09:11:06;8.85;69.59
66670;DHT22;53568;52.164;4.472;2023-02-01T09:13:33;8.87;69.25
66670;DHT22;53568;52.164;4.472;2023-02-01T09:15:59;8.79;69.66
66670;DHT22;53568;52.164;4.472;2023-02-01T09:18:25;8.82;70.29
66670;DHT22;53568;52.164;4.472;2023-02-01T09:20:50;8.80;70.74
66670;DHT22;53568;52.164;4.472;2023-02-01T09:23:16;8.77;70.78
66670;DHT22;53568;52.164;4.472;2023-02-01T09:25:41;8.83;70.52
66670;DHT22;53568;52.164;4.472;2023-02-01T09:28:07;8.85;70.95
66670;DHT22;53568;52.164;4.472;2023-02-01T09:30:35;8.83;70.85
66670;DHT22;53568;52.164;4.472;2023-02-01T09:33:02;8.77;71.01
66670;DHT22;53568;52.164;4.472;2023-02-01T09:35:28;8.83;70.27
66670;DHT22;53568;52.164;4.472;2023-02-01T09:37:54;8.86;69.91
66670;DHT22;53568;52.164;4.472;2023-02-01T09:40:20;8.87;69.80
66670;DHT22;53568;52.164;4.472;2023-02-01T09:45:24;8.79;70.34
66670;DHT22;53568;52.164;4.472;2023-02-01T09:47:59;8.89;70.46
66670;DHT22;53568;52.164;4.472;2023-02-01T09:50:36;8.75;71.14
66670;DHT22;53568;52.164;4.472;2023-02-01T09:53:12;8.83;70.99
66670;DHT22;53568;52.164;4.472;2023-02-01T09:55:45;8.79;71.29
66670;DHT22;53568;52.164;4.472;2023-02-01T10:00:55;8.83;70.96
66670;DHT22;53568;52.164;4.472;2023-02-01T10:03:25;8.83;70.68
66670;DHT22;53568;52.164;4.472;2023-02-01T10:06:16;8.79;70.53
66670;DHT22;53568;52.164;4.472;2023-02-01T10:12:16;8.66;71.13
66670;DHT22;53568;52.164;4.472;2023-02-01T10:20:30;8.87;71.10
66670;DHT22;53568;52.164;4.472;2023-02-01T10:25:55;8.82;71.69
66670;DHT22;53568;52.164;4.472;2023-02-01T10:28:24;8.85;71.82
66670;DHT22;53568;52.164;4.472;2023-02-01T10:30:56;8.82;72.24
66670;DHT22;53568;52.164;4.472;2023-02-01T10:33:34;8.80;72.41
66670;DHT22;53568;52.164;4.472;2023-02-01T10:38:43;8.80;71.95
66670;DHT22;53568;52.164;4.472;2023-02-01T10:41:15;8.75;72.30
66670;DHT22;53568;52.164;4.472;2023-02-01T10:43:44;8.79;72.30
66670;DHT22;53568;52.164;4.472;2023-02-01T10:46:11;8.82;71.80
66670;DHT22;53568;52.164;4.472;2023-02-01T10:48:37;8.87;71.79
66670;DHT22;53568;52.164;4.472;2023-02-01T10:51:08;8.85;71.67
66670;DHT22;53568;52.164;4.472;2023-02-01T10:53:44;8.83;71.95
66670;DHT22;53568;52.164;4.472;2023-02-01T10:56:12;8.90;71.51
66670;DHT22;53568;52.164;4.472;2023-02-01T10:58:47;8.86;71.02
66670;DHT22;53568;52.164;4.472;2023-02-01T11:03:58;8.90;71.33
66670;DHT22;53568;52.164;4.472;2023-02-01T11:06:35;8.95;71.18
66670;DHT22;53568;52.164;4.472;2023-02-01T11:16:55;9.00;70.64
66670;DHT22;53568;52.164;4.472;2023-02-01T11:19:22;9.00;70.75
66670;DHT22;53568;52.164;4.472;2023-02-01T11:21:53;8.92;70.72
66670;DHT22;53568;52.164;4.472;2023-02-01T11:24:23;9.03;71.03
66670;DHT22;53568;52.164;4.472;2023-02-01T11:26:49;9.10;70.59
66670;DHT22;53568;52.164;4.472;2023-02-01T11:29:18;9.06;70.78
66670;DHT22;53568;52.164;4.472;2023-02-01T11:31:49;9.02;70.80
66670;DHT22;53568;52.164;4.472;2023-02-01T11:34:18;9.13;70.07
66670;DHT22;53568;52.164;4.472;2023-02-01T11:36:48;9.07;70.53
66670;DHT22;53568;52.164;4.472;2023-02-01T11:41:43;9.13;70.71
66670;DHT22;53568;52.164;4.472;2023-02-01T11:44:23;9.06;71.15
66670;DHT22;53568;52.164;4.472;2023-02-01T11:46:51;9.16;70.91
66670;DHT22;53568;52.164;4.472;2023-02-01T11:49:23;9.20;70.83
66670;DHT22;53568;52.164;4.472;2023-02-01T11:57:35;9.06;71.37
66670;DHT22;53568;52.164;4.472;2023-02-01T12:00:13;8.93;71.58
66670;DHT22;53568;52.164;4.472;2023-02-01T12:08:22;9.03;71.19
66670;DHT22;53568;52.164;4.472;2023-02-01T12:11:25;9.06;71.08
66670;DHT22;53568;52.164;4.472;2023-02-01T12:20:20;9.12;71.24
66670;DHT22;53568;52.164;4.472;2023-02-01T12:26:00;9.30;70.68
66670;DHT22;53568;52.164;4.472;2023-02-01T12:28:43;9.37;70.48
66670;DHT22;53568;52.164;4.472;2023-02-01T12:31:19;9.41;70.43
66670;DHT22;53568;52.164;4.472;2023-02-01T12:33:56;9.46;70.28
66670;DHT22;53568;52.164;4.472;2023-02-01T12:39:37;9.47;69.69
66670;DHT22;53568;52.164;4.472;2023-02-01T12:42:29;9.48;69.94
66670;DHT22;53568;52.164;4.472;2023-02-01T12:45:37;9.43;70.22
66670;DHT22;53568;52.164;4.472;2023-02-01T12:50:54;9.46;70.64
66670;DHT22;53568;52.164;4.472;2023-02-01T12:53:44;9.41;70.92
66670;DHT22;53568;52.164;4.472;2023-02-01T12:56:23;9.41;70.75
66670;DHT22;53568;52.164;4.472;2023-02-01T12:58:56;9.43;70.79
66670;DHT22;53568;52.164;4.472;2023-02-01T13:01:35;9.48;70.58
66670;DHT22;53568;52.164;4.472;2023-02-01T13:04:19;9.52;70.26
66670;DHT22;53568;52.164;4.472;2023-02-01T13:06:51;9.54;70.35
66670;DHT22;53568;52.164;4.472;2023-02-01T13:09:36;9.47;71.03
66670;DHT22;53568;52.164;4.472;2023-02-01T13:12:15;9.46;71.21
66670;DHT22;53568;52.164;4.472;2023-02-01T13:14:46;9.41;71.80
66670;DHT22;53568;52.164;4.472;2023-02-01T13:17:24;9.38;71.67
66670;DHT22;53568;52.164;4.472;2023-02-01T13:20:26;9.43;71.70
66670;DHT22;53568;52.164;4.472;2023-02-01T13:23:04;9.50;71.56
66670;DHT22;53568;52.164;4.472;2023-02-01T13:25:42;9.46;71.18
66670;DHT22;53568;52.164;4.472;2023-02-01T13:31:21;9.51;71.29
66670;DHT22;53568;52.164;4.472;2023-02-01T13:33:56;9.38;71.73
66670;DHT22;53568;52.164;4.472;2023-02-01T13:42:03;9.34;72.76
66670;DHT22;53568;52.164;4.472;2023-02-01T13:44:48;9.40;73.02
66670;DHT22;53568;52.164;4.472;2023-02-01T13:47:41;9.50;72.87
66670;DHT22;53568;52.164;4.472;2023-02-01T13:50:31;9.44;73.04
66670;DHT22;53568;52.164;4.472;2023-02-01T13:53:01;9.48;73.05
66670;DHT22;53568;52.164;4.472;2023-02-01T13:55:36;9.48;72.93
66670;DHT22;53568;52.164;4.472;2023-02-01T14:00:41;9.46;72.71
66670;DHT22;53568;52.164;4.472;2023-02-01T14:03:12;9.48;72.93
66670;DHT22;53568;52.164;4.472;2023-02-01T14:21:28;9.54;72.53
66670;DHT22;53568;52.164;4.472;2023-02-01T14:24:01;9.57;72.81
66670;DHT22;53568;52.164;4.472;2023-02-01T14:47:43;9.71;72.41
66670;DHT22;53568;52.164;4.472;2023-02-01T14:50:29;9.74;72.50
66670;DHT22;53568;52.164;4.472;2023-02-01T14:58:40;9.74;72.94
66670;DHT22;53568;52.164;4.472;2023-02-01T15:01:17;9.78;72.61
66670;DHT22;53568;52.164;4.472;2023-02-01T15:06:36;9.84;72.53
66670;DHT22;53568;52.164;4.472;2023-02-01T15:09:16;9.88;72.40
66670;DHT22;53568;52.164;4.472;2023-02-01T15:11:57;9.85;72.48
66670;DHT22;53568;52.164;4.472;2023-02-01T15:14:23;9.84;72.34
66670;DHT22;53568;52.164;4.472;2023-02-01T15:16:49;9.67;72.77
66670;DHT22;53568;52.164;4.472;2023-02-01T15:19:23;9.75;72.71
66670;DHT22;53568;52.164;4.472;2023-02-01T15:21:52;9.78;72.65
66670;DHT22;53568;52.164;4.472;2023-02-01T15:24:27;9.82;72.68
66670;DHT22;53568;52.164;4.472;2023-02-01T15:26:54;9.81;72.57
66670;DHT22;53568;52.164;4.472;2023-02-01T15:29:23;9.75;72.65
66670;DHT22;53568;52.164;4.472;2023-02-01T15:31:53;9.82;72.49
66670;DHT22;53568;52.164;4.472;2023-02-01T15:34:20;9.70;72.68
66670;DHT22;53568;52.164;4.472;2023-02-01T15:36:46;9.65;72.67
66670;DHT22;53568;52.164;4.472;2023-02-01T15:39:16;9.69;72.58
66670;DHT22;53568;52.164;4.472;2023-02-01T15:41:51;9.70;72.68
66670;DHT22;53568;52.164;4.472;2023-02-01T15:47:15;9.71;72.94
66670;DHT22;53568;52.164;4.472;2023-02-01T15:49:50;9.64;73.45
66670;DHT22;53568;52.164;4.472;2023-02-01T15:52:39;9.69;73.18
66670;DHT22;53568;52.164;4.472;2023-02-01T15:55:17;9.69;73.22
66670;DHT22;53568;52.164;4.472;2023-02-01T15:57:44;9.73;73.22
66670;DHT22;53568;52.164;4.472;2023-02-01T16:03:04;9.81;73.30
66670;DHT22;53568;52.164;4.472;2023-02-01T16:05:36;9.78;73.48
66670;DHT22;53568;52.164;4.472;2023-02-01T16:08:14;9.77;73.62
66670;DHT22;53568;52.164;4.472;2023-02-01T16:10:43;9.82;73.59
66670;DHT22;53568;52.164;4.472;2023-02-01T16:13:09;9.74;73.87
66670;DHT22;53568;52.164;4.472;2023-02-01T16:15:35;9.81;73.70
66670;DHT22;53568;52.164;4.472;2023-02-01T16:18:01;9.82;73.71
66670;DHT22;53568;52.164;4.472;2023-02-01T16:20:26;9.85;73.80
66670;DHT22;53568;52.164;4.472;2023-02-01T16:22:52;9.84;73.78
66670;DHT22;53568;52.164;4.472;2023-02-01T16:25:17;9.78;73.78
66670;DHT22;53568;52.164;4.472;2023-02-01T16:27:43;9.84;73.88
66670;DHT22;53568;52.164;4.472;2023-02-01T16:30:09;9.85;73.94
66670;DHT22;53568;52.164;4.472;2023-02-01T16:32:36;9.87;74.00
66670;DHT22;53568;52.164;4.472;2023-02-01T16:35:05;9.90;73.93
66670;DHT22;53568;52.164;4.472;2023-02-01T16:37:30;9.84;74.13
66670;DHT22;53568;52.164;4.472;2023-02-01T16:39:58;9.84;74.28
66670;DHT22;53568;52.164;4.472;2023-02-01T16:42:24;9.84;74.28
66670;DHT22;53568;52.164;4.472;2023-02-01T16:44:49;9.80;74.52
66670;DHT22;53568;52.164;4.472;2023-02-01T16:47:21;9.80;74.47
66670;DHT22;53568;52.164;4.472;2023-02-01T16:49:47;9.80;74.45
66670;DHT22;53568;52.164;4.472;2023-02-01T16:52:21;9.84;74.26
66670;DHT22;53568;52.164;4.472;2023-02-01T16:54:48;9.84;74.07
66670;DHT22;53568;52.164;4.472;2023-02-01T16:57:16;9.85;74.09
66670;DHT22;53568;52.164;4.472;2023-02-01T16:59:42;9.84;74.09
66670;DHT22;53568;52.164;4.472;2023-02-01T17:02:12;9.84;74.04
66670;DHT22;53568;52.164;4.472;2023-02-01T17:04:38;9.81;74.26
66670;DHT22;53568;52.164;4.472;2023-02-01T17:07:04;9.78;74.31
66670;DHT22;53568;52.164;4.472;2023-02-01T17:09:35;9.80;74.44
66670;DHT22;53568;52.164;4.472;2023-02-01T17:12:02;9.80;74.56
66670;DHT22;53568;52.164;4.472;2023-02-01T17:14:31;9.78;74.76
66670;DHT22;53568;52.164;4.472;2023-02-01T17:16:57;9.77;74.80
66670;DHT22;53568;52.164;4.472;2023-02-01T17:19:23;9.70;74.90
66670;DHT22;53568;52.164;4.472;2023-02-01T17:21:52;9.70;74.70
66670;DHT22;53568;52.164;4.472;2023-02-01T17:24:23;9.81;74.62
66670;DHT22;53568;52.164;4.472;2023-02-01T17:26:49;9.78;74.65
66670;DHT22;53568;52.164;4.472;2023-02-01T17:29:16;9.84;74.54
66670;DHT22;53568;52.164;4.472;2023-02-01T17:31:46;9.87;74.56
66670;DHT22;53568;52.164;4.472;2023-02-01T17:34:13;9.87;74.47
66670;DHT22;53568;52.164;4.472;2023-02-01T17:36:44;9.91;74.53
66670;DHT22;53568;52.164;4.472;2023-02-01T17:39:11;9.87;74.68
66670;DHT22;53568;52.164;4.472;2023-02-01T17:41:58;9.87;74.73
66670;DHT22;53568;52.164;4.472;2023-02-01T17:44:23;9.91;74.70
66670;DHT22;53568;52.164;4.472;2023-02-01T17:46:49;9.90;74.75
66670;DHT22;53568;52.164;4.472;2023-02-01T17:49:14;10.01;74.59
66670;DHT22;53568;52.164;4.472;2023-02-01T17:51:40;9.97;74.61
66670;DHT22;53568;52.164;4.472;2023-02-01T17:54:12;9.99;74.51
66670;DHT22;53568;52.164;4.472;2023-02-01T17:56:37;9.92;74.74
66670;DHT22;53568;52.164;4.472;2023-02-01T17:59:03;9.97;74.67
66670;DHT22;53568;52.164;4.472;2023-02-01T18:01:29;9.90;74.63
66670;DHT22;53568;52.164;4.472;2023-02-01T18:03:54;9.91;74.49
66670;DHT22;53568;52.164;4.472;2023-02-01T18:06:25;9.94;74.47
66670;DHT22;53568;52.164;4.472;2023-02-01T18:08:53;9.88;74.53
66670;DHT22;53568;52.164;4.472;2023-02-01T18:11:21;9.94;74.39
66670;DHT22;53568;52.164;4.472;2023-02-01T18:13:50;9.90;74.40
66670;DHT22;53568;52.164;4.472;2023-02-01T18:18:49;9.90;74.24
66670;DHT22;53568;52.164;4.472;2023-02-01T18:21:21;9.82;74.31
66670;DHT22;53568;52.164;4.472;2023-02-01T18:23:48;9.85;74.20
66670;DHT22;53568;52.164;4.472;2023-02-01T18:26:16;9.97;74.05
66670;DHT22;53568;52.164;4.472;2023-02-01T18:28:42;9.97;73.87
66670;DHT22;53568;52.164;4.472;2023-02-01T18:33:47;9.85;74.15
66670;DHT22;53568;52.164;4.472;2023-02-01T18:36:13;9.92;74.00
66670;DHT22;53568;52.164;4.472;2023-02-01T18:38:40;9.91;73.97
66670;DHT22;53568;52.164;4.472;2023-02-01T18:41:12;9.95;73.86
66670;DHT22;53568;52.164;4.472;2023-02-01T18:43:39;9.90;73.71
66670;DHT22;53568;52.164;4.472;2023-02-01T18:46:06;9.94;73.73
66670;DHT22;53568;52.164;4.472;2023-02-01T18:48:33;9.97;73.77